createdAt,value
2022-10-19T00:00:40.704Z,0.00
2022-10-19T00:01:40.755Z,0.00
2022-10-19T00:02:40.732Z,0.00
2022-10-19T00:03:40.743Z,0.00
2022-10-19T00:04:40.700Z,0.00
2022-10-19T00:05:40.742Z,0.00
2022-10-19T00:06:40.702Z,0.00
2022-10-19T00:07:40.695Z,0.00
2022-10-19T00:08:40.698Z,0.00
2022-10-19T00:09:40.701Z,0.00
2022-10-19T00:10:40.696Z,0.00
2022-10-19T00:11:40.692Z,0.00
2022-10-19T00:12:40.749Z,0.00
2022-10-19T00:13:40.697Z,0.00
2022-10-19T00:14:40.690Z,0.00
2022-10-19T00:15:40.695Z,0.00
2022-10-19T00:16:40.698Z,0.00
2022-10-19T00:17:40.692Z,0.00
2022-10-19T00:18:40.711Z,0.00
2022-10-19T00:19:40.692Z,0.00
2022-10-19T00:20:40.691Z,0.00
2022-10-19T00:21:40.737Z,0.00
2022-10-19T00:22:40.697Z,0.00
2022-10-19T00:23:40.690Z,0.00
2022-10-19T00:24:40.688Z,0.00
2022-10-19T00:25:40.688Z,0.00
2022-10-19T00:26:40.686Z,0.00
2022-10-19T00:27:40.689Z,0.00
2022-10-19T00:28:40.720Z,0.00
2022-10-19T00:29:40.690Z,0.00
2022-10-19T00:30:40.718Z,0.00
2022-10-19T00:31:40.685Z,0.00
2022-10-19T00:32:40.686Z,0.00
2022-10-19T00:33:40.685Z,0.00
2022-10-19T00:34:40.705Z,0.00
2022-10-19T00:35:40.681Z,0.00
2022-10-19T00:36:40.686Z,0.00
2022-10-19T00:37:40.689Z,0.00
2022-10-19T00:38:40.680Z,0.00
2022-10-19T00:39:40.779Z,0.00
2022-10-19T00:40:40.677Z,0.00
2022-10-19T00:41:40.681Z,0.00
2022-10-19T00:42:40.679Z,0.00
2022-10-19T00:43:40.676Z,0.00
2022-10-19T00:44:40.679Z,0.00
2022-10-19T00:45:40.706Z,0.00
2022-10-19T00:46:40.674Z,0.00
2022-10-19T00:47:40.680Z,0.00
2022-10-19T00:48:40.718Z,0.00
2022-10-19T00:49:40.677Z,0.00
2022-10-19T00:50:40.698Z,0.00
2022-10-19T00:51:40.675Z,0.00
2022-10-19T00:52:40.675Z,0.00
2022-10-19T00:53:40.680Z,0.00
2022-10-19T00:54:40.671Z,0.00
2022-10-19T00:55:40.676Z,0.00
2022-10-19T00:56:40.675Z,0.00
2022-10-19T00:57:40.726Z,0.00
2022-10-19T00:58:40.673Z,0.00
2022-10-19T00:59:40.671Z,0.00
2022-10-19T01:00:40.719Z,0.00
2022-10-19T01:01:40.669Z,0.00
2022-10-19T01:02:40.675Z,0.00
2022-10-19T01:03:40.674Z,0.00
2022-10-19T01:04:40.670Z,0.00
2022-10-19T01:05:40.666Z,0.00
2022-10-19T01:06:40.803Z,0.00
2022-10-19T01:07:40.663Z,0.00
2022-10-19T01:08:40.667Z,0.00
2022-10-19T01:09:40.664Z,0.00
2022-10-19T01:10:40.666Z,0.00
2022-10-19T01:11:40.668Z,0.00
2022-10-19T01:12:40.667Z,0.00
2022-10-19T01:13:40.665Z,0.00
2022-10-19T01:14:40.662Z,0.00
2022-10-19T01:15:40.701Z,0.00
2022-10-19T01:16:40.669Z,0.00
2022-10-19T01:17:40.661Z,0.00
2022-10-19T01:18:40.664Z,0.00
2022-10-19T01:19:40.662Z,0.00
2022-10-19T01:20:40.668Z,0.00
2022-10-19T01:21:40.664Z,0.00
2022-10-19T01:22:40.688Z,0.00
2022-10-19T01:23:40.660Z,0.00
2022-10-19T01:24:40.880Z,0.00
2022-10-19T01:25:40.662Z,0.00
2022-10-19T01:26:40.657Z,0.00
2022-10-19T01:27:40.661Z,0.00
2022-10-19T01:28:40.721Z,0.00
2022-10-19T01:29:40.662Z,0.00
2022-10-19T01:30:40.659Z,0.00
2022-10-19T01:31:40.660Z,0.00
2022-10-19T01:32:40.657Z,0.00
2022-10-19T01:33:40.656Z,0.00
2022-10-19T01:34:40.656Z,0.00
2022-10-19T01:35:40.657Z,0.00
2022-10-19T01:36:40.652Z,0.00
2022-10-19T01:37:40.657Z,0.00
2022-10-19T01:38:40.682Z,0.00
2022-10-19T01:39:40.657Z,0.00
2022-10-19T01:40:40.657Z,0.00
2022-10-19T01:41:40.653Z,0.00
2022-10-19T01:42:40.654Z,0.00
2022-10-19T01:43:40.649Z,0.00
2022-10-19T01:44:40.654Z,0.00
2022-10-19T01:45:40.650Z,0.00
2022-10-19T01:46:40.647Z,0.00
2022-10-19T01:47:40.650Z,0.00
2022-10-19T01:48:40.651Z,0.00
2022-10-19T01:49:40.649Z,0.00
2022-10-19T01:50:40.647Z,0.00
2022-10-19T01:51:40.646Z,0.00
2022-10-19T01:52:40.648Z,0.00
2022-10-19T01:53:40.653Z,0.00
2022-10-19T01:54:40.667Z,0.00
2022-10-19T01:55:40.645Z,0.00
2022-10-19T01:56:40.643Z,0.00
2022-10-19T01:57:40.648Z,0.00
2022-10-19T01:58:40.644Z,0.00
2022-10-19T01:59:40.648Z,0.00
2022-10-19T02:00:40.714Z,0.00
2022-10-19T02:01:40.643Z,0.00
2022-10-19T02:02:40.644Z,0.00
2022-10-19T02:03:40.641Z,0.00
2022-10-19T02:04:40.647Z,0.00
2022-10-19T02:05:40.644Z,0.00
2022-10-19T02:06:40.645Z,0.00
2022-10-19T02:07:40.642Z,0.00
2022-10-19T02:08:40.646Z,0.00
2022-10-19T02:09:40.640Z,0.00
2022-10-19T02:10:40.666Z,0.00
2022-10-19T02:11:42.483Z,0.00
2022-10-19T02:12:40.638Z,0.00
2022-10-19T02:13:40.641Z,0.00
2022-10-19T02:14:40.641Z,0.00
2022-10-19T02:15:40.637Z,0.00
2022-10-19T02:16:40.634Z,0.00
2022-10-19T02:17:40.643Z,0.00
2022-10-19T02:18:40.638Z,0.00
2022-10-19T02:19:40.636Z,0.00
2022-10-19T02:20:40.638Z,0.00
2022-10-19T02:21:40.635Z,0.00
2022-10-19T02:22:40.640Z,0.00
2022-10-19T02:23:40.645Z,0.00
2022-10-19T02:24:40.633Z,0.00
2022-10-19T02:25:40.637Z,0.00
2022-10-19T02:26:40.656Z,0.00
2022-10-19T02:27:40.633Z,0.00
2022-10-19T02:28:40.637Z,0.00
2022-10-19T02:29:40.630Z,0.00
2022-10-19T02:30:40.628Z,0.00
2022-10-19T02:31:40.636Z,0.00
2022-10-19T02:32:40.629Z,0.00
2022-10-19T02:33:40.631Z,0.00
2022-10-19T02:34:40.635Z,0.00
2022-10-19T02:35:40.631Z,0.00
2022-10-19T02:36:40.636Z,0.00
2022-10-19T02:37:40.716Z,0.00
2022-10-19T02:38:40.633Z,0.00
2022-10-19T02:39:40.632Z,0.00
2022-10-19T02:40:40.625Z,0.00
2022-10-19T02:41:40.633Z,0.00
2022-10-19T02:42:40.652Z,0.00
2022-10-19T02:43:40.631Z,0.00
2022-10-19T02:44:40.624Z,0.00
2022-10-19T02:45:40.624Z,0.00
2022-10-19T02:47:40.621Z,0.00
2022-10-19T02:48:40.635Z,0.00
2022-10-19T02:49:40.624Z,0.00
2022-10-19T02:50:40.621Z,0.00
2022-10-19T02:51:40.621Z,0.00
2022-10-19T02:52:40.621Z,0.00
2022-10-19T02:53:40.619Z,0.00
2022-10-19T02:54:40.618Z,0.00
2022-10-19T02:56:40.625Z,0.00
2022-10-19T02:57:40.621Z,0.00
2022-10-19T02:58:40.649Z,0.00
2022-10-19T02:59:40.624Z,0.00
2022-10-19T03:00:40.696Z,0.00
2022-10-19T03:01:40.622Z,0.00
2022-10-19T03:02:40.623Z,0.00
2022-10-19T03:03:40.619Z,0.00
2022-10-19T03:04:40.656Z,0.00
2022-10-19T03:05:40.618Z,0.00
2022-10-19T03:06:40.618Z,0.00
2022-10-19T03:07:40.619Z,0.00
2022-10-19T03:08:40.616Z,0.00
2022-10-19T03:09:40.616Z,0.00
2022-10-19T03:10:40.618Z,0.00
2022-10-19T03:11:40.619Z,0.00
2022-10-19T03:12:40.617Z,0.00
2022-10-19T03:13:40.699Z,0.00
2022-10-19T03:14:40.646Z,0.00
2022-10-19T03:15:40.609Z,0.00
2022-10-19T03:16:40.615Z,0.00
2022-10-19T03:17:40.613Z,0.00
2022-10-19T03:18:40.617Z,0.00
2022-10-19T03:19:40.614Z,0.00
2022-10-19T03:20:40.615Z,0.00
2022-10-19T03:21:40.609Z,0.00
2022-10-19T03:22:40.671Z,0.00
2022-10-19T03:23:40.611Z,0.00
2022-10-19T03:24:40.610Z,0.00
2022-10-19T03:25:40.606Z,0.00
2022-10-19T03:26:40.609Z,0.00
2022-10-19T03:27:40.605Z,0.00
2022-10-19T03:28:40.705Z,0.00
2022-10-19T03:29:40.606Z,0.00
2022-10-19T03:30:40.636Z,0.00
2022-10-19T03:31:40.605Z,0.00
2022-10-19T03:32:40.608Z,0.00
2022-10-19T03:33:40.604Z,0.00
2022-10-19T03:34:40.602Z,0.00
2022-10-19T03:35:40.603Z,0.00
2022-10-19T03:36:40.603Z,0.00
2022-10-19T03:37:40.603Z,0.00
2022-10-19T03:39:40.606Z,0.00
2022-10-19T03:40:40.603Z,0.00
2022-10-19T03:41:40.602Z,0.00
2022-10-19T03:42:40.602Z,0.00
2022-10-19T03:43:40.600Z,0.00
2022-10-19T03:44:40.603Z,0.00
2022-10-19T03:45:40.603Z,0.00
2022-10-19T03:46:40.620Z,0.00
2022-10-19T03:47:40.603Z,0.00
2022-10-19T03:48:40.600Z,0.00
2022-10-19T03:49:40.602Z,0.00
2022-10-19T03:50:40.599Z,0.00
2022-10-19T03:51:40.602Z,0.00
2022-10-19T03:52:40.600Z,0.00
2022-10-19T03:53:40.611Z,0.00
2022-10-19T03:54:40.594Z,0.00
2022-10-19T03:55:40.597Z,0.00
2022-10-19T03:56:40.590Z,0.00
2022-10-19T03:57:40.593Z,0.00
2022-10-19T03:58:40.596Z,0.00
2022-10-19T03:59:40.595Z,0.00
2022-10-19T04:00:40.673Z,0.00
2022-10-19T04:01:40.591Z,0.00
2022-10-19T04:02:40.612Z,0.00
2022-10-19T04:03:40.593Z,0.00
2022-10-19T04:04:40.591Z,0.00
2022-10-19T04:05:40.593Z,0.00
2022-10-19T04:06:40.594Z,0.00
2022-10-19T04:07:40.588Z,0.00
2022-10-19T04:08:40.595Z,0.00
2022-10-19T04:09:40.587Z,0.00
2022-10-19T04:10:40.585Z,0.00
2022-10-19T04:11:40.592Z,0.00
2022-10-19T04:12:40.591Z,0.00
2022-10-19T04:13:40.589Z,0.00
2022-10-19T04:14:56.247Z,0.00
2022-10-19T04:15:40.586Z,0.00
2022-10-19T04:16:40.589Z,0.00
2022-10-19T04:17:40.585Z,0.00
2022-10-19T04:18:40.600Z,0.00
2022-10-19T04:19:40.594Z,0.00
2022-10-19T04:20:40.586Z,0.00
2022-10-19T04:21:40.583Z,0.00
2022-10-19T04:22:40.589Z,0.00
2022-10-19T04:23:40.585Z,0.00
2022-10-19T04:24:40.586Z,0.00
2022-10-19T04:25:40.584Z,0.00
2022-10-19T04:26:40.581Z,0.00
2022-10-19T04:27:40.585Z,0.00
2022-10-19T04:28:40.631Z,0.00
2022-10-19T04:29:40.582Z,0.00
2022-10-19T04:30:40.579Z,0.00
2022-10-19T04:31:40.579Z,0.00
2022-10-19T04:32:40.585Z,0.00
2022-10-19T04:33:40.667Z,0.00
2022-10-19T04:34:40.597Z,0.00
2022-10-19T04:35:40.584Z,0.00
2022-10-19T04:36:40.575Z,0.00
2022-10-19T04:37:40.579Z,0.00
2022-10-19T04:38:40.578Z,0.00
2022-10-19T04:39:40.577Z,0.00
2022-10-19T04:40:40.573Z,0.00
2022-10-19T04:41:40.577Z,0.00
2022-10-19T04:42:40.574Z,0.00
2022-10-19T04:43:40.584Z,0.00
2022-10-19T04:44:40.580Z,0.00
2022-10-19T04:45:40.576Z,0.00
2022-10-19T04:46:40.575Z,0.00
2022-10-19T04:47:40.573Z,0.00
2022-10-19T04:48:40.573Z,0.00
2022-10-19T04:49:40.572Z,0.00
2022-10-19T04:50:40.596Z,0.00
2022-10-19T04:51:40.574Z,0.00
2022-10-19T04:52:40.572Z,0.00
2022-10-19T04:53:40.571Z,0.00
2022-10-19T04:54:40.574Z,0.00
2022-10-19T04:55:40.570Z,0.00
2022-10-19T04:56:40.573Z,0.00
2022-10-19T04:57:40.573Z,0.00
2022-10-19T04:58:40.573Z,0.00
2022-10-19T04:59:40.569Z,0.00
2022-10-19T05:00:40.659Z,0.00
2022-10-19T05:01:44.765Z,0.00
2022-10-19T05:02:40.577Z,0.00
2022-10-19T05:03:40.569Z,0.00
2022-10-19T05:04:43.044Z,0.00
2022-10-19T05:05:40.566Z,0.00
2022-10-19T05:06:40.587Z,0.00
2022-10-19T05:07:40.565Z,0.00
2022-10-19T05:08:40.563Z,0.00
2022-10-19T05:09:40.563Z,0.00
2022-10-19T05:10:44.219Z,0.00
2022-10-19T05:11:40.564Z,0.00
2022-10-19T05:12:40.558Z,0.00
2022-10-19T05:13:40.561Z,0.00
2022-10-19T05:14:42.775Z,0.00
2022-10-19T05:15:40.559Z,0.00
2022-10-19T05:16:40.557Z,0.00
2022-10-19T05:17:40.566Z,0.00
2022-10-19T05:18:40.561Z,0.00
2022-10-19T05:19:40.560Z,0.00
2022-10-19T05:20:40.567Z,0.00
2022-10-19T05:21:40.559Z,0.00
2022-10-19T05:22:40.579Z,0.00
2022-10-19T05:23:40.556Z,0.00
2022-10-19T05:24:40.556Z,0.00
2022-10-19T05:25:40.563Z,0.00
2022-10-19T05:26:40.558Z,0.00
2022-10-19T05:27:40.553Z,0.00
2022-10-19T05:28:40.667Z,0.00
2022-10-19T05:29:40.559Z,0.00
2022-10-19T05:30:41.361Z,0.00
2022-10-19T05:31:40.550Z,0.00
2022-10-19T05:32:40.547Z,0.00
2022-10-19T05:33:40.554Z,5.63
2022-10-19T05:34:40.552Z,5.63
2022-10-19T05:35:40.554Z,5.63
2022-10-19T05:36:40.552Z,5.63
2022-10-19T05:37:40.560Z,5.63
2022-10-19T05:38:40.568Z,5.63
2022-10-19T05:39:40.551Z,5.63
2022-10-19T05:40:40.554Z,5.63
2022-10-19T05:41:40.551Z,11.25
2022-10-19T05:42:40.551Z,11.25
2022-10-19T05:43:40.554Z,11.25
2022-10-19T05:44:40.780Z,11.25
2022-10-19T05:45:40.545Z,11.25
2022-10-19T05:46:40.544Z,11.25
2022-10-19T05:47:40.546Z,16.88
2022-10-19T05:48:40.544Z,16.88
2022-10-19T05:49:40.547Z,16.88
2022-10-19T05:50:40.542Z,16.88
2022-10-19T05:51:40.547Z,16.88
2022-10-19T05:52:40.540Z,22.50
2022-10-19T05:53:40.768Z,28.13
2022-10-19T05:54:40.558Z,28.13
2022-10-19T05:55:40.544Z,33.75
2022-10-19T05:56:40.538Z,33.75
2022-10-19T05:57:40.544Z,33.75
2022-10-19T05:58:40.541Z,33.75
2022-10-19T05:59:40.540Z,28.13
2022-10-19T06:00:40.545Z,28.13
2022-10-19T06:01:40.652Z,28.13
2022-10-19T06:02:40.539Z,28.13
2022-10-19T06:03:40.547Z,28.13
2022-10-19T06:04:40.570Z,33.75
2022-10-19T06:05:40.540Z,33.75
2022-10-19T06:06:40.536Z,28.13
2022-10-19T06:07:40.543Z,22.50
2022-10-19T06:08:40.555Z,22.50
2022-10-19T06:09:40.534Z,28.13
2022-10-19T06:10:40.551Z,33.75
2022-10-19T06:11:40.537Z,33.75
2022-10-19T06:12:40.539Z,28.13
2022-10-19T06:13:40.532Z,28.13
2022-10-19T06:14:40.616Z,28.13
2022-10-19T06:15:40.532Z,33.75
2022-10-19T06:16:40.530Z,39.38
2022-10-19T06:17:40.532Z,45.00
2022-10-19T06:18:40.537Z,50.63
2022-10-19T06:19:40.536Z,56.25
2022-10-19T06:20:40.535Z,56.25
2022-10-19T06:21:43.259Z,56.25
2022-10-19T06:22:40.527Z,56.25
2022-10-19T06:23:43.567Z,56.25
2022-10-19T06:24:40.535Z,61.88
2022-10-19T06:25:40.535Z,73.13
2022-10-19T06:26:40.547Z,78.75
2022-10-19T06:27:40.589Z,90.00
2022-10-19T06:28:40.526Z,95.63
2022-10-19T06:29:40.526Z,106.88
2022-10-19T06:30:40.607Z,106.88
2022-10-19T06:31:40.531Z,106.88
2022-10-19T06:32:40.521Z,106.88
2022-10-19T06:33:40.622Z,101.25
2022-10-19T06:34:40.523Z,95.63
2022-10-19T06:35:40.527Z,95.63
2022-10-19T06:36:40.520Z,101.25
2022-10-19T06:37:40.528Z,106.88
2022-10-19T06:38:40.522Z,106.88
2022-10-19T06:39:40.555Z,101.25
2022-10-19T06:40:40.528Z,101.25
2022-10-19T06:41:40.524Z,101.25
2022-10-19T06:42:40.551Z,101.25
2022-10-19T06:43:40.521Z,95.63
2022-10-19T06:44:40.519Z,95.63
2022-10-19T06:45:40.517Z,95.63
2022-10-19T06:46:40.517Z,95.63
2022-10-19T06:47:40.559Z,95.63
2022-10-19T06:48:40.519Z,106.88
2022-10-19T06:49:40.543Z,106.88
2022-10-19T06:50:40.552Z,106.88
2022-10-19T06:51:40.523Z,106.88
2022-10-19T06:52:40.531Z,112.50
2022-10-19T06:53:40.519Z,118.13
2022-10-19T06:54:40.517Z,112.50
2022-10-19T06:55:40.514Z,106.88
2022-10-19T06:56:40.588Z,118.13
2022-10-19T06:57:40.524Z,123.75
2022-10-19T06:58:40.537Z,129.38
2022-10-19T06:59:40.519Z,140.63
2022-10-19T07:00:40.556Z,146.25
2022-10-19T07:01:40.510Z,157.50
2022-10-19T07:02:40.511Z,174.38
2022-10-19T07:03:40.515Z,168.75
2022-10-19T07:04:40.513Z,168.75
2022-10-19T07:05:40.519Z,163.13
2022-10-19T07:06:40.526Z,168.75
2022-10-19T07:07:40.535Z,168.75
2022-10-19T07:08:40.506Z,168.75
2022-10-19T07:09:40.509Z,163.13
2022-10-19T07:10:40.515Z,219.38
2022-10-19T07:11:45.716Z,225.00
2022-10-19T07:12:40.517Z,180.00
2022-10-19T07:13:40.511Z,157.50
2022-10-19T07:14:40.531Z,196.88
2022-10-19T07:15:40.512Z,264.38
2022-10-19T07:16:40.515Z,326.25
2022-10-19T07:17:40.509Z,298.13
2022-10-19T07:18:40.507Z,219.38
2022-10-19T07:19:40.514Z,163.13
2022-10-19T07:20:40.510Z,151.88
2022-10-19T07:21:40.507Z,146.25
2022-10-19T07:22:40.506Z,140.63
2022-10-19T07:23:40.505Z,135.00
2022-10-19T07:24:40.506Z,129.38
2022-10-19T07:25:40.507Z,129.38
2022-10-19T07:26:40.511Z,129.38
2022-10-19T07:27:40.809Z,157.50
2022-10-19T07:28:40.504Z,196.88
2022-10-19T07:29:40.506Z,219.38
2022-10-19T07:30:40.530Z,241.88
2022-10-19T07:31:40.505Z,241.88
2022-10-19T07:32:44.540Z,236.25
2022-10-19T07:33:40.503Z,225.00
2022-10-19T07:34:40.505Z,241.88
2022-10-19T07:35:40.507Z,253.13
2022-10-19T07:36:40.505Z,258.75
2022-10-19T07:37:40.503Z,286.88
2022-10-19T07:38:40.503Z,303.75
2022-10-19T07:39:40.504Z,303.75
2022-10-19T07:40:44.752Z,298.13
2022-10-19T07:41:40.501Z,303.75
2022-10-19T07:42:40.520Z,309.38
2022-10-19T07:43:40.505Z,331.88
2022-10-19T07:44:40.509Z,337.50
2022-10-19T07:45:40.505Z,331.88
2022-10-19T07:46:40.526Z,315.00
2022-10-19T07:47:40.501Z,253.13
2022-10-19T07:48:40.505Z,208.13
2022-10-19T07:49:40.508Z,185.63
2022-10-19T07:50:40.509Z,185.63
2022-10-19T07:51:40.499Z,247.50
2022-10-19T07:52:40.657Z,264.38
2022-10-19T07:53:40.529Z,253.13
2022-10-19T07:54:40.509Z,225.00
2022-10-19T07:55:40.498Z,208.13
2022-10-19T07:56:40.494Z,191.25
2022-10-19T07:57:42.569Z,213.75
2022-10-19T07:58:40.504Z,264.38
2022-10-19T07:59:40.503Z,298.13
2022-10-19T08:01:40.554Z,331.88
2022-10-19T08:03:05.074Z,326.25
2022-10-19T08:04:31.746Z,348.75
2022-10-19T08:04:59.877Z,382.50
2022-10-19T08:05:40.503Z,410.63
2022-10-19T08:06:40.505Z,455.63
2022-10-19T08:07:40.505Z,523.13
2022-10-19T08:08:40.571Z,540.00
2022-10-19T08:09:52.872Z,489.38
2022-10-19T08:10:40.502Z,478.13
2022-10-19T08:11:40.501Z,517.50
2022-10-19T08:12:40.503Z,568.13
2022-10-19T08:13:40.497Z,534.38
2022-10-19T08:14:40.502Z,455.63
2022-10-19T08:15:40.501Z,461.25
2022-10-19T08:16:40.524Z,393.75
2022-10-19T08:17:40.509Z,354.38
2022-10-19T08:18:40.525Z,433.13
2022-10-19T08:19:40.501Z,455.63
2022-10-19T08:20:40.504Z,427.50
2022-10-19T08:21:40.500Z,376.88
2022-10-19T08:22:40.501Z,315.00
2022-10-19T08:23:40.504Z,230.63
2022-10-19T08:24:40.501Z,247.50
2022-10-19T08:25:40.511Z,303.75
2022-10-19T08:26:40.503Z,292.50
2022-10-19T08:27:40.504Z,270.00
2022-10-19T08:28:40.501Z,281.25
2022-10-19T08:29:40.504Z,298.13
2022-10-19T08:30:40.508Z,236.25
2022-10-19T08:31:40.495Z,185.63
2022-10-19T08:32:40.509Z,174.38
2022-10-19T08:33:40.506Z,163.13
2022-10-19T08:34:40.524Z,140.63
2022-10-19T08:35:40.498Z,112.50
2022-10-19T08:37:45.012Z,78.75
2022-10-19T08:38:40.499Z,123.75
2022-10-19T08:39:40.499Z,151.88
2022-10-19T08:40:40.500Z,174.38
2022-10-19T08:41:40.596Z,213.75
2022-10-19T08:42:40.500Z,241.88
2022-10-19T08:43:40.499Z,241.88
2022-10-19T08:44:40.499Z,241.88
2022-10-19T08:46:40.499Z,247.50
2022-10-19T08:47:40.500Z,253.13
2022-10-19T08:48:40.508Z,258.75
2022-10-19T08:49:40.499Z,270.00
2022-10-19T08:50:40.544Z,292.50
2022-10-19T08:51:40.502Z,365.63
2022-10-19T08:52:40.501Z,427.50
2022-10-19T08:53:40.508Z,438.75
2022-10-19T08:54:40.561Z,450.00
2022-10-19T08:55:40.502Z,461.25
2022-10-19T08:56:52.389Z,495.00
2022-10-19T08:57:40.508Z,523.13
2022-10-19T08:58:40.509Z,540.00
2022-10-19T08:59:40.506Z,540.00
2022-10-19T09:01:40.506Z,579.38
2022-10-19T09:02:40.509Z,624.38
2022-10-19T09:03:56.492Z,680.63
2022-10-19T09:04:40.505Z,680.63
2022-10-19T09:05:40.506Z,742.50
2022-10-19T09:06:40.528Z,781.88
2022-10-19T09:07:40.502Z,703.13
2022-10-19T09:08:40.572Z,652.50
2022-10-19T09:09:40.537Z,675.00
2022-10-19T09:10:40.514Z,826.88
2022-10-19T09:11:40.507Z,961.88
2022-10-19T09:12:40.508Z,1080.00
2022-10-19T09:13:46.983Z,1035.00
2022-10-19T09:14:40.509Z,1096.88
2022-10-19T09:15:40.508Z,1237.50
2022-10-19T09:16:40.505Z,804.38
2022-10-19T09:17:40.504Z,686.25
2022-10-19T09:18:40.538Z,691.88
2022-10-19T09:19:40.512Z,703.13
2022-10-19T09:20:40.510Z,703.13
2022-10-19T09:21:44.562Z,697.50
2022-10-19T09:22:40.537Z,703.13
2022-10-19T09:23:40.517Z,691.88
2022-10-19T09:24:40.514Z,725.63
2022-10-19T09:25:40.510Z,787.50
2022-10-19T09:26:40.517Z,1051.88
2022-10-19T09:27:40.522Z,973.13
2022-10-19T09:28:40.528Z,2058.75
2022-10-19T09:29:40.510Z,2649.38
2022-10-19T09:30:40.519Z,3031.88
2022-10-19T09:31:40.914Z,1704.38
2022-10-19T09:32:40.518Z,2188.13
2022-10-19T09:33:40.525Z,1755.00
2022-10-19T09:34:40.519Z,1276.88
2022-10-19T09:35:40.522Z,1209.38
2022-10-19T09:36:53.336Z,1248.75
2022-10-19T09:37:40.526Z,1704.38
2022-10-19T09:38:40.563Z,1350.00
2022-10-19T09:39:47.874Z,1496.25
2022-10-19T09:40:40.543Z,1861.88
2022-10-19T09:41:40.527Z,2756.25
2022-10-19T09:42:40.535Z,1833.75
2022-10-19T09:43:40.597Z,1833.75
2022-10-19T09:44:40.541Z,2289.38
2022-10-19T09:45:40.536Z,2362.50
2022-10-19T09:46:40.573Z,1665.00
2022-10-19T09:47:40.544Z,1918.13
2022-10-19T09:48:40.546Z,2835.00
2022-10-19T09:49:40.546Z,2272.50
2022-10-19T09:50:40.551Z,1591.88
2022-10-19T09:51:40.551Z,1530.00
2022-10-19T09:52:40.559Z,1186.88
2022-10-19T09:53:40.560Z,1153.13
2022-10-19T09:54:40.580Z,1102.50
2022-10-19T09:55:40.607Z,1867.50
2022-10-19T09:56:40.573Z,1006.88
2022-10-19T09:57:40.572Z,984.38
2022-10-19T09:58:40.582Z,1175.63
2022-10-19T09:59:40.576Z,1198.13
2022-10-19T10:00:40.588Z,1175.63
2022-10-19T10:01:43.104Z,1096.88
2022-10-19T10:02:40.603Z,1029.38
2022-10-19T10:03:40.608Z,1012.50
2022-10-19T10:04:40.601Z,1918.13
2022-10-19T10:05:40.606Z,1288.13
2022-10-19T10:06:40.609Z,2013.75
2022-10-19T10:07:40.609Z,1833.75
2022-10-19T10:08:40.625Z,2756.25
2022-10-19T10:09:40.618Z,3684.38
2022-10-19T10:10:40.640Z,1940.63
2022-10-19T10:11:40.640Z,3020.63
2022-10-19T10:12:40.632Z,1591.88
2022-10-19T10:13:40.634Z,961.88
2022-10-19T10:14:40.629Z,1288.13
2022-10-19T10:15:40.637Z,1659.38
2022-10-19T10:16:53.381Z,1445.63
2022-10-19T10:17:40.645Z,1091.25
2022-10-19T10:18:40.653Z,1091.25
2022-10-19T10:19:40.656Z,2154.38
2022-10-19T10:20:40.659Z,2846.25
2022-10-19T10:21:40.666Z,1181.25
2022-10-19T10:22:40.676Z,1029.38
2022-10-19T10:23:40.671Z,1096.88
2022-10-19T10:24:40.680Z,1254.38
2022-10-19T10:25:40.681Z,1091.25
2022-10-19T10:26:40.725Z,1147.50
2022-10-19T10:27:40.695Z,596.25
2022-10-19T10:28:40.699Z,500.63
2022-10-19T10:29:40.703Z,444.38
2022-10-19T10:30:40.707Z,444.38
2022-10-19T10:31:40.713Z,461.25
2022-10-19T10:32:43.300Z,472.50
2022-10-19T10:33:44.939Z,483.75
2022-10-19T10:34:59.876Z,472.50
2022-10-19T10:35:40.735Z,466.88
2022-10-19T10:36:40.731Z,472.50
2022-10-19T10:37:40.735Z,489.38
2022-10-19T10:38:40.747Z,528.75
2022-10-19T10:39:40.753Z,579.38
2022-10-19T10:40:40.757Z,641.25
2022-10-19T10:41:40.961Z,646.88
2022-10-19T10:42:40.781Z,720.00
2022-10-19T10:43:40.838Z,798.75
2022-10-19T10:44:40.770Z,877.50
2022-10-19T10:45:40.771Z,990.00
2022-10-19T10:46:40.777Z,1119.38
2022-10-19T10:47:40.778Z,1597.50
2022-10-19T10:48:40.787Z,3251.25
2022-10-19T10:49:40.783Z,1586.25
2022-10-19T10:50:40.792Z,1254.38
2022-10-19T10:51:40.799Z,1327.50
2022-10-19T10:52:40.803Z,1254.38
2022-10-19T10:53:40.810Z,1125.00
2022-10-19T10:54:40.808Z,1029.38
2022-10-19T10:55:40.810Z,1006.88
2022-10-19T10:56:40.829Z,956.25
2022-10-19T10:57:40.819Z,956.25
2022-10-19T10:58:40.845Z,1125.00
2022-10-19T10:59:44.670Z,1057.50
2022-10-19T11:00:40.834Z,1372.50
2022-10-19T11:01:40.882Z,1580.63
2022-10-19T11:02:40.845Z,1226.25
2022-10-19T11:03:40.848Z,4061.25
2022-10-19T11:04:40.855Z,2458.13
2022-10-19T11:05:40.862Z,2722.50
2022-10-19T11:06:43.731Z,1901.25
2022-10-19T11:07:40.863Z,1018.13
2022-10-19T11:08:40.913Z,1316.25
2022-10-19T11:09:40.871Z,3757.50
2022-10-19T11:10:40.878Z,3346.88
2022-10-19T11:11:40.893Z,4072.50
2022-10-19T11:12:40.889Z,1175.63
2022-10-19T11:13:40.899Z,1164.38
2022-10-19T11:14:40.918Z,3301.88
2022-10-19T11:15:40.911Z,4365.00
2022-10-19T11:16:40.913Z,4252.50
2022-10-19T11:17:40.916Z,4095.00
2022-10-19T11:18:40.924Z,3982.50
2022-10-19T11:19:40.930Z,3971.25
2022-10-19T11:20:40.945Z,4010.63
2022-10-19T11:21:40.946Z,2514.38
2022-10-19T11:22:40.957Z,838.13
2022-10-19T11:23:40.966Z,1119.38
2022-10-19T11:24:42.739Z,427.50
2022-10-19T11:25:41.031Z,376.88
2022-10-19T11:26:40.991Z,410.63
2022-10-19T11:27:41.000Z,438.75
2022-10-19T11:28:41.014Z,433.13
2022-10-19T11:29:41.021Z,444.38
2022-10-19T11:30:42.804Z,461.25
2022-10-19T11:31:41.039Z,483.75
2022-10-19T11:32:41.050Z,528.75
2022-10-19T11:33:41.054Z,590.63
2022-10-19T11:34:41.062Z,635.63
2022-10-19T11:35:41.070Z,680.63
2022-10-19T11:36:41.079Z,776.25
2022-10-19T11:37:49.451Z,939.38
2022-10-19T11:38:41.097Z,3487.50
2022-10-19T11:39:41.107Z,2345.63
2022-10-19T11:40:54.230Z,2362.50
2022-10-19T11:41:41.121Z,1125.00
2022-10-19T11:42:41.249Z,1299.38
2022-10-19T11:43:41.133Z,1068.75
2022-10-19T11:44:41.144Z,978.75
2022-10-19T11:45:41.155Z,843.75
2022-10-19T11:46:41.171Z,765.00
2022-10-19T11:47:41.180Z,821.25
2022-10-19T11:48:43.738Z,624.38
2022-10-19T11:49:41.185Z,585.00
2022-10-19T11:50:44.067Z,562.50
2022-10-19T11:51:41.201Z,534.38
2022-10-19T11:52:41.200Z,500.63
2022-10-19T11:53:41.213Z,455.63
2022-10-19T11:54:41.228Z,421.88
2022-10-19T11:55:41.226Z,399.38
2022-10-19T11:57:01.514Z,388.13
2022-10-19T11:57:41.237Z,410.63
2022-10-19T11:58:41.239Z,444.38
2022-10-19T11:59:41.252Z,483.75
2022-10-19T12:00:41.314Z,523.13
2022-10-19T12:01:41.336Z,551.25
2022-10-19T12:02:41.289Z,601.88
2022-10-19T12:03:41.275Z,613.13
2022-10-19T12:04:41.279Z,556.88
2022-10-19T12:05:41.287Z,489.38
2022-10-19T12:06:41.298Z,433.13
2022-10-19T12:07:41.296Z,511.88
2022-10-19T12:08:41.368Z,354.38
2022-10-19T12:09:41.306Z,337.50
2022-10-19T12:10:41.314Z,382.50
2022-10-19T12:11:41.315Z,410.63
2022-10-19T12:12:41.323Z,455.63
2022-10-19T12:13:41.327Z,669.38
2022-10-19T12:14:41.334Z,720.00
2022-10-19T12:15:41.337Z,748.13
2022-10-19T12:16:41.339Z,708.75
2022-10-19T12:17:41.346Z,658.13
2022-10-19T12:18:41.372Z,663.75
2022-10-19T12:19:41.349Z,635.63
2022-10-19T12:20:41.354Z,568.13
2022-10-19T12:21:41.362Z,500.63
2022-10-19T12:22:41.366Z,450.00
2022-10-19T12:23:41.368Z,410.63
2022-10-19T12:24:41.375Z,382.50
2022-10-19T12:25:41.381Z,354.38
2022-10-19T12:26:41.381Z,320.63
2022-10-19T12:27:41.395Z,298.13
2022-10-19T12:28:41.391Z,281.25
2022-10-19T12:29:41.393Z,281.25
2022-10-19T12:30:41.397Z,275.63
2022-10-19T12:31:41.403Z,258.75
2022-10-19T12:32:41.404Z,241.88
2022-10-19T12:33:41.409Z,230.63
2022-10-19T12:34:41.440Z,219.38
2022-10-19T12:35:41.413Z,213.75
2022-10-19T12:36:41.418Z,208.13
2022-10-19T12:37:41.418Z,202.50
2022-10-19T12:38:45.135Z,196.88
2022-10-19T12:39:41.426Z,196.88
2022-10-19T12:40:41.429Z,196.88
2022-10-19T12:41:41.428Z,196.88
2022-10-19T12:42:41.429Z,196.88
2022-10-19T12:43:41.435Z,196.88
2022-10-19T12:44:41.438Z,196.88
2022-10-19T12:45:41.444Z,202.50
2022-10-19T12:46:41.445Z,213.75
2022-10-19T12:47:41.450Z,236.25
2022-10-19T12:48:41.592Z,253.13
2022-10-19T12:49:41.451Z,298.13
2022-10-19T12:50:41.476Z,326.25
2022-10-19T12:51:41.462Z,354.38
2022-10-19T12:52:41.458Z,388.13
2022-10-19T12:53:41.463Z,382.50
2022-10-19T12:54:41.463Z,393.75
2022-10-19T12:55:43.524Z,421.88